Time;durP1;ratioP1;P1;durP2;ratioP2;P2;SDS_P1;SDS_P2;PMS_P1;PMS_P2;Temp;Humidity;BMP_temperature;BMP_pressure;BME280_temperature;BME280_humidity;BME280_pressure;Samples;Min_cycle;Max_cycle;Signal;HPM_P1;HPM_P2
2021/12/12 00:02:06;;;;;;;8.25;6.95;;;6.20;99.90;;;;;;5054321;28;20227;-67
2021/12/12 00:04:36;;;;;;;8.52;6.65;;;6.20;99.90;;;;;;5053695;28;20254;-66
2021/12/12 00:07:06;;;;;;;7.05;6.00;;;6.20;99.90;;;;;;5054523;28;20210;-66
2021/12/12 00:09:37;;;;;;;7.07;5.88;;;6.20;99.90;;;;;;5054726;28;20209;-67
2021/12/12 00:12:09;;;;;;;7.63;6.82;;;6.10;99.90;;;;;;5054582;28;20223;-66
2021/12/12 00:14:36;;;;;;;8.63;6.43;;;6.10;99.90;;;;;;5054080;28;20541;-67
2021/12/12 00:17:06;;;;;;;7.80;6.47;;;6.10;99.90;;;;;;5054407;28;20209;-67
2021/12/12 00:19:35;;;;;;;6.35;5.75;;;6.10;99.90;;;;;;5054427;28;20217;-67
2021/12/12 00:22:05;;;;;;;7.10;6.20;;;6.10;99.90;;;;;;5054263;28;20223;-66
2021/12/12 00:24:32;;;;;;;7.15;6.00;;;6.10;99.90;;;;;;5054222;28;20677;-67
2021/12/12 00:26:59;;;;;;;8.05;6.00;;;6.10;99.90;;;;;;5054146;28;20566;-67
2021/12/12 00:29:28;;;;;;;7.32;6.40;;;6.10;99.90;;;;;;5054126;28;20553;-67
2021/12/12 00:31:59;;;;;;;7.10;6.30;;;6.00;99.90;;;;;;5053851;28;20230;-66
2021/12/12 00:34:27;;;;;;;6.95;5.28;;;5.80;99.90;;;;;;5053883;28;20278;-66
2021/12/12 00:36:53;;;;;;;8.10;6.22;;;5.80;99.90;;;;;;5054343;28;20203;-67
2021/12/12 00:39:24;;;;;;;6.95;5.90;;;5.90;99.90;;;;;;5054270;28;20214;-66
2021/12/12 00:41:55;;;;;;;10.10;7.20;;;5.90;99.90;;;;;;5054090;28;20743;-66
2021/12/12 00:44:23;;;;;;;8.18;7.35;;;5.90;99.90;;;;;;5053738;28;20212;-66
2021/12/12 00:46:54;;;;;;;9.10;8.07;;;6.00;99.90;;;;;;5054098;28;20207;-67
2021/12/12 00:49:22;;;;;;;11.18;8.90;;;6.10;99.90;;;;;;5054139;28;20661;-67
2021/12/12 00:51:50;;;;;;;10.07;8.90;;;6.00;99.90;;;;;;5054073;28;20210;-66
2021/12/12 00:54:18;;;;;;;10.70;9.13;;;6.10;99.90;;;;;;5053758;28;20206;-67
2021/12/12 00:56:47;;;;;;;9.65;8.32;;;6.00;99.90;;;;;;5053688;28;20203;-67
2021/12/12 00:59:14;;;;;;;11.20;8.73;;;6.10;99.90;;;;;;5053646;28;20215;-67
2021/12/12 01:01:45;;;;;;;11.48;9.50;;;6.10;99.90;;;;;;5053886;28;20203;-66
2021/12/12 01:04:17;;;;;;;10.60;9.10;;;6.00;99.90;;;;;;5053953;28;20269;-67
2021/12/12 01:06:45;;;;;;;12.13;9.82;;;6.10;99.90;;;;;;5053503;28;20207;-67
2021/12/12 01:09:16;;;;;;;12.02;9.50;;;6.00;99.90;;;;;;5053779;28;20294;-66
2021/12/12 01:11:48;;;;;;;11.95;10.32;;;6.00;99.90;;;;;;5053564;28;20231;-67
2021/12/12 01:14:19;;;;;;;14.68;10.68;;;5.90;99.90;;;;;;5053945;28;20194;-66
2021/12/12 01:16:49;;;;;;;15.15;11.00;;;6.00;99.90;;;;;;5057865;28;20203;-67
2021/12/12 01:19:20;;;;;;;12.80;11.10;;;6.00;99.90;;;;;;5057661;28;20225;-66
2021/12/12 01:21:51;;;;;;;12.88;9.90;;;5.90;99.90;;;;;;5057371;28;20294;-67
2021/12/12 01:24:25;;;;;;;9.20;7.65;;;5.90;99.90;;;;;;5057967;28;20542;-66
2021/12/12 01:26:53;;;;;;;8.25;6.70;;;5.90;99.90;;;;;;5057832;28;20207;-67
2021/12/12 01:29:20;;;;;;;9.57;7.60;;;6.00;99.90;;;;;;5057775;28;20653;-66
2021/12/12 01:31:48;;;;;;;8.00;7.20;;;6.00;99.90;;;;;;5057401;28;20206;-66
2021/12/12 01:34:22;;;;;;;8.02;7.03;;;6.00;99.90;;;;;;5057249;28;20207;-67
2021/12/12 01:37:06;;;;;;;10.60;7.47;;;6.10;99.90;;;;;;5057631;28;20238;-66
2021/12/12 01:39:37;;;;;;;9.25;8.27;;;6.10;99.90;;;;;;5057605;28;20203;-66
2021/12/12 01:42:08;;;;;;;10.13;8.32;;;6.20;99.90;;;;;;5057342;28;20234;-67
2021/12/12 01:44:41;;;;;;;8.18;7.38;;;6.20;99.90;;;;;;5057063;28;20299;-66
2021/12/12 01:47:13;;;;;;;10.88;8.05;;;6.20;99.90;;;;;;5057369;28;20576;-66
2021/12/12 01:49:44;;;;;;;9.48;7.65;;;6.20;99.90;;;;;;5057411;28;20661;-66
2021/12/12 01:52:16;;;;;;;9.65;7.88;;;6.20;99.90;;;;;;5057376;28;20234;-67
2021/12/12 01:54:47;;;;;;;8.30;7.50;;;6.20;99.90;;;;;;5056520;28;20661;-67
2021/12/12 01:57:17;;;;;;;10.25;8.13;;;6.20;99.90;;;;;;5057133;28;20214;-66
2021/12/12 01:59:46;;;;;;;9.88;7.45;;;6.20;99.90;;;;;;5057050;28;20306;-66
2021/12/12 02:02:17;;;;;;;9.07;7.60;;;6.10;99.90;;;;;;5056843;28;20234;-67
2021/12/12 02:04:48;;;;;;;10.77;8.25;;;6.10;99.90;;;;;;5056994;28;20217;-67
2021/12/12 02:07:18;;;;;;;10.35;8.05;;;6.00;99.90;;;;;;5056620;28;20238;-66
2021/12/12 02:09:46;;;;;;;9.35;8.00;;;6.00;99.90;;;;;;5057282;28;20209;-66
2021/12/12 02:12:14;;;;;;;9.18;7.43;;;6.00;99.90;;;;;;5056858;28;20219;-67
2021/12/12 02:14:43;;;;;;;9.02;8.13;;;6.00;99.90;;;;;;5056859;28;20207;-67
2021/12/12 02:17:18;;;;;;;9.63;7.57;;;6.00;99.90;;;;;;5056977;28;20367;-67
2021/12/12 02:20:02;;;;;;;8.90;8.00;;;5.90;99.90;;;;;;5056401;28;20302;-66
2021/12/12 02:22:46;;;;;;;9.90;7.70;;;5.90;99.90;;;;;;5056349;28;20225;-66
2021/12/12 02:36:17;;;;;;;9.73;7.40;;;5.90;99.90;;;;;;5055941;28;20261;-66
2021/12/12 02:38:47;;;;;;;9.05;7.28;;;5.90;99.90;;;;;;5056415;28;20199;-66
2021/12/12 02:41:16;;;;;;;7.95;7.18;;;5.90;99.90;;;;;;5056316;28;20199;-66
2021/12/12 02:43:45;;;;;;;9.55;7.40;;;5.90;99.90;;;;;;5056359;28;20246;-67
2021/12/12 02:46:16;;;;;;;8.18;6.82;;;5.90;99.90;;;;;;5055541;28;20314;-67
2021/12/12 02:48:45;;;;;;;7.93;7.13;;;5.90;99.90;;;;;;5056000;28;20207;-66
2021/12/12 02:51:16;;;;;;;8.57;6.57;;;5.90;99.90;;;;;;5055860;28;20290;-66
2021/12/12 02:53:47;;;;;;;9.65;7.28;;;5.90;99.90;;;;;;5055793;28;20278;-66
2021/12/12 02:56:17;;;;;;;8.88;6.63;;;5.90;99.90;;;;;;5056002;28;20209;-66
2021/12/12 02:58:45;;;;;;;6.00;5.40;;;6.00;99.90;;;;;;5055629;28;20223;-66
2021/12/12 03:01:16;;;;;;;5.75;4.95;;;6.00;99.90;;;;;;5055511;28;20690;-66
2021/12/12 03:03:45;;;;;;;7.32;5.78;;;6.00;99.90;;;;;;5056136;28;20233;-66
2021/12/12 03:06:18;;;;;;;6.57;5.85;;;6.00;99.90;;;;;;5055597;28;20318;-67
2021/12/12 03:08:49;;;;;;;6.60;5.95;;;6.00;99.90;;;;;;5055925;28;20568;-66
2021/12/12 03:11:17;;;;;;;5.75;5.05;;;6.00;99.90;;;;;;5055966;28;20230;-67
2021/12/12 03:13:44;;;;;;;6.65;5.75;;;6.00;99.90;;;;;;5055559;28;20223;-66
2021/12/12 03:16:12;;;;;;;8.23;5.80;;;6.00;99.90;;;;;;5055142;28;20206;-66
2021/12/12 03:18:42;;;;;;;7.38;6.00;;;5.90;99.90;;;;;;5055615;28;20203;-66
2021/12/12 03:21:15;;;;;;;6.00;5.40;;;5.90;99.90;;;;;;5055585;28;20199;-66
2021/12/12 03:23:45;;;;;;;7.68;5.60;;;5.90;99.90;;;;;;5055929;28;20223;-67
2021/12/12 03:26:14;;;;;;;5.72;5.15;;;5.90;99.90;;;;;;5054795;28;20708;-66
2021/12/12 03:28:45;;;;;;;6.07;4.90;;;5.90;99.90;;;;;;5055062;28;20207;-66
2021/12/12 03:31:18;;;;;;;6.15;5.55;;;5.80;99.90;;;;;;5055848;28;20523;-66
2021/12/12 03:33:45;;;;;;;6.55;4.88;;;5.80;99.90;;;;;;5055691;28;20231;-66
2021/12/12 03:36:14;;;;;;;5.95;5.20;;;5.70;99.90;;;;;;5054609;28;20250;-66
2021/12/12 03:38:46;;;;;;;6.68;4.95;;;5.70;99.90;;;;;;5053910;28;20203;-66
2021/12/12 03:41:18;;;;;;;5.10;4.60;;;5.70;99.90;;;;;;5054925;28;20207;-66
2021/12/12 03:43:46;;;;;;;7.80;5.10;;;5.70;99.90;;;;;;5055263;28;20223;-66
2021/12/12 03:46:13;;;;;;;5.10;4.57;;;5.60;99.90;;;;;;5054910;28;20547;-66
2021/12/12 03:48:44;;;;;;;5.88;4.40;;;5.50;99.90;;;;;;5055162;28;20206;-67
2021/12/12 03:51:15;;;;;;;6.10;4.70;;;5.40;99.90;;;;;;5054805;28;20207;-66
2021/12/12 03:53:42;;;;;;;7.25;5.15;;;5.40;99.90;;;;;;5054941;28;20249;-66
2021/12/12 03:56:11;;;;;;;6.20;5.10;;;5.30;99.90;;;;;;5054559;28;20201;-66
2021/12/12 03:58:39;;;;;;;5.95;4.78;;;5.30;99.90;;;;;;5054429;28;20212;-66
2021/12/12 04:01:11;;;;;;;5.00;4.35;;;5.20;99.90;;;;;;5054512;28;20203;-66
2021/12/12 04:03:41;;;;;;;4.90;4.40;;;5.20;99.90;;;;;;5054199;28;20223;-66
2021/12/12 04:06:11;;;;;;;7.03;4.22;;;5.20;99.90;;;;;;5054103;28;20686;-67
2021/12/12 04:08:40;;;;;;;7.50;4.60;;;5.30;99.90;;;;;;5054610;28;20294;-66
2021/12/12 04:11:12;;;;;;;6.35;4.72;;;5.20;99.90;;;;;;5054387;28;20637;-66
2021/12/12 04:13:43;;;;;;;8.13;4.70;;;5.10;99.90;;;;;;5053914;28;20231;-66
2021/12/12 04:16:11;;;;;;;5.65;4.65;;;5.10;99.90;;;;;;5054020;28;20541;-67
2021/12/12 04:18:38;;;;;;;6.47;4.72;;;5.10;99.90;;;;;;5054185;28;20210;-66
2021/12/12 04:21:05;;;;;;;6.80;4.63;;;5.00;99.90;;;;;;5054256;28;20199;-66
2021/12/12 04:23:33;;;;;;;5.85;4.93;;;5.00;99.90;;;;;;5054590;28;20231;-66
2021/12/12 04:26:11;;;;;;;6.28;4.75;;;4.90;99.90;;;;;;5054247;28;20230;-66
2021/12/12 04:28:41;;;;;;;6.22;5.60;;;4.80;99.90;;;;;;5053972;28;20203;-66
2021/12/12 04:31:08;;;;;;;6.93;5.80;;;4.70;99.90;;;;;;5054231;28;20567;-66
2021/12/12 04:33:35;;;;;;;7.72;5.20;;;4.60;99.90;;;;;;5054200;28;20682;-66
2021/12/12 04:36:02;;;;;;;6.07;5.45;;;4.50;99.90;;;;;;5054099;28;20364;-66
2021/12/12 04:38:29;;;;;;;6.05;4.80;;;4.40;99.90;;;;;;5054340;28;20206;-66
2021/12/12 04:40:55;;;;;;;5.55;4.90;;;4.30;99.90;;;;;;5053708;28;20203;-66
2021/12/12 04:43:22;;;;;;;5.88;4.70;;;4.20;99.90;;;;;;5053914;28;20227;-66
2021/12/12 04:46:08;;;;;;;7.38;5.30;;;4.10;99.90;;;;;;5053703;28;20227;-66
2021/12/12 04:51:35;;;;;;;8.10;6.25;;;4.10;99.90;;;;;;5053690;28;20218;-66
2021/12/12 04:54:08;;;;;;;7.55;5.93;;;4.10;99.90;;;;;;5054018;28;20210;-66
2021/12/12 04:56:46;;;;;;;8.20;5.95;;;4.10;99.90;;;;;;5053753;28;20210;-66
2021/12/12 04:59:20;;;;;;;8.63;5.70;;;4.10;99.90;;;;;;5053509;28;20225;-66
2021/12/12 05:01:57;;;;;;;7.13;5.60;;;4.10;99.90;;;;;;5053977;28;20227;-66
2021/12/12 05:04:30;;;;;;;9.98;5.90;;;4.00;99.90;;;;;;5053334;28;20203;-66
2021/12/12 05:07:00;;;;;;;9.52;7.10;;;3.90;99.90;;;;;;5053719;28;20223;-66
2021/12/12 05:09:31;;;;;;;6.90;5.53;;;3.70;99.90;;;;;;5053897;28;20203;-66
2021/12/12 05:12:03;;;;;;;7.10;5.25;;;3.70;99.90;;;;;;5053449;28;20227;-66
2021/12/12 05:14:35;;;;;;;6.20;4.90;;;3.80;99.90;;;;;;5053368;28;20210;-67
2021/12/12 05:17:09;;;;;;;6.18;4.95;;;3.80;99.90;;;;;;5053647;28;20320;-66
2021/12/12 05:19:42;;;;;;;7.63;4.95;;;3.80;99.90;;;;;;5053735;28;20198;-66
2021/12/12 05:22:13;;;;;;;5.47;4.43;;;3.80;99.90;;;;;;5053590;28;20310;-66
2021/12/12 05:24:42;;;;;;;6.18;4.68;;;3.90;99.90;;;;;;5053918;28;20194;-66
2021/12/12 05:27:14;;;;;;;7.65;5.13;;;3.90;99.90;;;;;;5053371;28;20234;-66
2021/12/12 05:29:46;;;;;;;7.10;5.40;;;3.90;99.90;;;;;;5053537;28;20207;-66
2021/12/12 05:32:17;;;;;;;9.27;6.85;;;4.00;99.90;;;;;;5053302;28;20230;-66
2021/12/12 05:34:49;;;;;;;7.97;5.95;;;4.00;99.90;;;;;;5053351;28;20199;-66
2021/12/12 05:37:18;;;;;;;5.78;4.50;;;4.00;99.90;;;;;;5053656;28;20593;-66
2021/12/12 05:39:45;;;;;;;7.10;5.45;;;4.00;99.90;;;;;;5053084;28;20203;-66
2021/12/12 05:42:14;;;;;;;6.68;5.07;;;4.00;99.90;;;;;;5053374;28;20231;-66
2021/12/12 05:44:43;;;;;;;5.63;4.50;;;4.00;99.90;;;;;;5053433;28;20345;-66
2021/12/12 05:47:10;;;;;;;6.90;5.10;;;4.10;99.90;;;;;;5053463;28;20227;-66
2021/12/12 05:49:41;;;;;;;7.13;4.97;;;4.10;99.90;;;;;;5053477;28;20207;-66
2021/12/12 05:52:10;;;;;;;6.80;5.47;;;4.10;99.90;;;;;;5052874;28;20309;-66
2021/12/12 05:54:39;;;;;;;8.32;5.60;;;4.10;99.90;;;;;;5052926;28;20650;-66
2021/12/12 05:57:09;;;;;;;5.85;5.05;;;4.10;99.90;;;;;;5053396;28;20274;-66
2021/12/12 05:59:36;;;;;;;7.57;5.57;;;4.10;99.90;;;;;;5053230;28;20241;-66
2021/12/12 06:02:05;;;;;;;7.50;5.40;;;4.10;99.90;;;;;;5054324;28;20219;-66
2021/12/12 06:04:32;;;;;;;6.07;5.28;;;4.10;99.90;;;;;;5056320;28;20665;-66
2021/12/12 06:07:03;;;;;;;7.18;5.03;;;4.10;99.90;;;;;;5056820;28;20230;-66
2021/12/12 06:09:32;;;;;;;8.77;5.20;;;4.10;99.90;;;;;;5056802;28;20245;-66
2021/12/12 06:12:00;;;;;;;11.10;7.70;;;4.10;99.90;;;;;;5056818;28;20224;-66
2021/12/12 06:14:30;;;;;;;8.65;5.90;;;4.10;99.90;;;;;;5057136;28;20203;-66
2021/12/12 06:16:59;;;;;;;5.45;4.60;;;4.10;99.90;;;;;;5056280;28;20200;-66
2021/12/12 06:19:26;;;;;;;7.63;4.97;;;4.10;99.90;;;;;;5056350;28;20214;-66
2021/12/12 06:21:59;;;;;;;5.57;4.45;;;4.10;99.90;;;;;;5056667;28;20227;-66
2021/12/12 06:24:31;;;;;;;5.60;4.45;;;4.10;99.90;;;;;;5056811;28;20190;-67
2021/12/12 06:27:05;;;;;;;6.43;5.75;;;4.10;99.90;;;;;;5056778;28;20314;-68
2021/12/12 06:29:32;;;;;;;7.20;5.22;;;4.10;99.90;;;;;;5056179;28;20610;-68
2021/12/12 06:31:59;;;;;;;6.00;4.97;;;4.10;99.90;;;;;;5056210;28;20230;-68
2021/12/12 06:34:26;;;;;;;6.75;4.95;;;4.10;99.90;;;;;;5056191;28;20568;-68
2021/12/12 06:36:53;;;;;;;5.80;4.93;;;4.10;99.90;;;;;;5056412;28;20210;-68
2021/12/12 06:39:21;;;;;;;6.78;5.63;;;4.00;99.90;;;;;;5056532;28;20208;-68
2021/12/12 06:41:50;;;;;;;7.20;6.05;;;4.00;99.90;;;;;;5056396;28;20214;-66
2021/12/12 06:44:17;;;;;;;5.88;5.20;;;4.00;99.90;;;;;;5056085;28;20207;-66
2021/12/12 06:46:45;;;;;;;6.90;4.75;;;4.00;99.90;;;;;;5055863;28;20314;-66
2021/12/12 06:49:15;;;;;;;7.03;5.43;;;3.90;99.90;;;;;;5056002;28;20218;-66
2021/12/12 06:51:44;;;;;;;7.00;5.75;;;3.90;99.90;;;;;;5056155;28;20200;-66
2021/12/12 06:54:15;;;;;;;7.93;5.75;;;3.90;99.90;;;;;;5056559;28;20210;-66
2021/12/12 06:56:42;;;;;;;7.82;5.50;;;3.90;99.90;;;;;;5055457;28;20202;-66
2021/12/12 06:59:11;;;;;;;8.50;5.80;;;3.90;99.90;;;;;;5055639;28;20207;-66
2021/12/12 07:01:39;;;;;;;7.55;5.40;;;4.00;99.90;;;;;;5055886;28;20199;-66
2021/12/12 07:04:10;;;;;;;7.10;5.20;;;4.00;99.90;;;;;;5055902;28;20299;-66
2021/12/12 07:06:37;;;;;;;5.75;4.82;;;4.00;99.90;;;;;;5055404;28;20543;-66
2021/12/12 07:09:07;;;;;;;9.25;5.90;;;4.00;99.90;;;;;;5055471;28;20649;-66
2021/12/12 07:11:36;;;;;;;6.90;5.45;;;4.00;99.90;;;;;;5055608;28;20209;-66
2021/12/12 07:14:04;;;;;;;8.10;5.68;;;3.90;99.90;;;;;;5055620;28;20207;-66
2021/12/12 07:16:32;;;;;;;9.98;6.68;;;3.80;99.90;;;;;;5055591;28;20196;-66
2021/12/12 07:18:59;;;;;;;8.27;6.68;;;3.70;99.90;;;;;;5055779;28;20206;-66
2021/12/12 07:21:27;;;;;;;9.10;6.55;;;3.40;99.90;;;;;;5055297;28;20214;-66
2021/12/12 07:23:56;;;;;;;12.23;7.32;;;3.30;99.90;;;;;;5055078;28;20232;-66
2021/12/12 07:26:24;;;;;;;8.70;6.45;;;3.30;99.90;;;;;;5055178;28;20223;-66
2021/12/12 07:28:53;;;;;;;9.40;7.03;;;3.20;99.90;;;;;;5055517;28;20289;-66
2021/12/12 07:31:23;;;;;;;8.38;7.10;;;3.20;99.90;;;;;;5055531;28;20655;-66
2021/12/12 07:33:54;;;;;;;10.32;7.03;;;3.10;99.90;;;;;;5054853;28;20223;-66
2021/12/12 07:36:22;;;;;;;8.45;5.75;;;3.10;99.90;;;;;;5054751;28;20195;-66
2021/12/12 07:38:54;;;;;;;8.80;6.55;;;3.10;99.90;;;;;;5055089;28;20213;-66
2021/12/12 07:41:24;;;;;;;8.20;6.60;;;3.20;99.90;;;;;;5054930;28;20225;-66
2021/12/12 07:43:52;;;;;;;7.57;5.90;;;3.10;99.90;;;;;;5055504;28;20233;-66
2021/12/12 07:46:19;;;;;;;7.25;6.22;;;3.20;99.90;;;;;;5054416;28;20310;-66
2021/12/12 07:48:49;;;;;;;8.50;6.07;;;3.20;99.90;;;;;;5054843;28;20553;-66
2021/12/12 07:51:18;;;;;;;11.90;7.88;;;3.30;99.90;;;;;;5054488;28;20204;-66
2021/12/12 07:53:49;;;;;;;10.75;7.85;;;3.40;99.90;;;;;;5055050;28;20224;-66
2021/12/12 07:56:17;;;;;;;11.20;9.02;;;3.40;99.90;;;;;;5054808;28;20292;-66
2021/12/12 07:58:44;;;;;;;7.55;6.07;;;3.50;99.90;;;;;;5054472;28;20258;-66
2021/12/12 08:01:13;;;;;;;6.00;5.05;;;3.60;99.90;;;;;;5054415;28;20208;-66
2021/12/12 08:03:41;;;;;;;8.10;6.05;;;3.70;99.90;;;;;;5054718;28;20226;-66
2021/12/12 08:06:11;;;;;;;6.70;5.47;;;3.70;99.90;;;;;;5054487;28;20295;-66
2021/12/12 08:08:41;;;;;;;6.05;5.45;;;3.80;99.90;;;;;;5054759;28;20203;-66
2021/12/12 08:11:09;;;;;;;5.35;4.85;;;3.90;99.90;;;;;;5054521;28;20218;-67
2021/12/12 08:13:36;;;;;;;7.05;5.20;;;4.00;99.90;;;;;;5054067;28;20224;-66
2021/12/12 08:16:08;;;;;;;5.93;4.70;;;4.10;99.90;;;;;;5054305;28;20555;-66
2021/12/12 08:18:38;;;;;;;7.20;5.28;;;4.20;99.90;;;;;;5054481;28;20681;-66
2021/12/12 08:21:06;;;;;;;5.45;4.30;;;4.30;99.90;;;;;;5054664;28;20207;-66
2021/12/12 08:23:33;;;;;;;5.20;4.32;;;4.40;99.90;;;;;;5053860;28;20239;-66
2021/12/12 08:26:03;;;;;;;4.95;3.95;;;4.50;99.90;;;;;;5053625;28;20203;-66
2021/12/12 08:28:30;;;;;;;5.35;4.30;;;4.60;99.90;;;;;;5054074;28;20547;-66
2021/12/12 08:30:58;;;;;;;5.10;4.60;;;4.70;99.90;;;;;;5054239;28;20583;-66
2021/12/12 08:33:25;;;;;;;6.30;4.55;;;4.80;99.90;;;;;;5054397;28;20581;-66
2021/12/12 08:35:53;;;;;;;6.00;4.30;;;4.80;99.90;;;;;;5054163;28;20209;-66
2021/12/12 08:38:20;;;;;;;4.18;3.55;;;4.90;99.90;;;;;;5054258;28;20214;-66
2021/12/12 08:40:50;;;;;;;6.05;4.13;;;5.00;99.90;;;;;;5053766;28;20204;-66
2021/12/12 08:43:20;;;;;;;5.18;4.30;;;5.10;99.90;;;;;;5053785;28;20315;-66
2021/12/12 08:45:50;;;;;;;4.22;3.83;;;5.10;99.90;;;;;;5053874;28;20203;-66
2021/12/12 08:48:19;;;;;;;6.50;4.75;;;5.20;99.90;;;;;;5054027;28;20581;-66
2021/12/12 08:50:48;;;;;;;6.45;5.10;;;5.20;99.90;;;;;;5054097;28;20655;-66
2021/12/12 08:53:17;;;;;;;5.07;4.60;;;5.20;99.90;;;;;;5053708;28;20318;-66
2021/12/12 08:55:45;;;;;;;6.18;4.20;;;5.20;99.90;;;;;;5053598;28;20207;-66
2021/12/12 08:58:17;;;;;;;4.05;3.75;;;5.30;99.90;;;;;;5053382;28;20218;-66
2021/12/12 09:00:52;;;;;;;5.70;4.15;;;5.30;99.90;;;;;;5054002;28;20239;-66
2021/12/12 09:03:22;;;;;;;10.60;7.63;;;5.40;99.90;;;;;;5053975;28;20222;-66
2021/12/12 09:05:50;;;;;;;8.13;5.50;;;5.40;99.90;;;;;;5053299;28;20210;-66
2021/12/12 09:08:24;;;;;;;4.05;3.65;;;5.40;99.90;;;;;;5053621;28;20230;-66
2021/12/12 09:10:57;;;;;;;4.22;3.80;;;5.50;99.90;;;;;;5053326;28;20204;-66
2021/12/12 09:13:29;;;;;;;4.10;3.70;;;5.50;99.90;;;;;;5053788;28;20559;-66
2021/12/12 09:16:04;;;;;;;4.50;3.25;;;5.50;99.90;;;;;;5053356;28;20192;-66
2021/12/12 09:18:37;;;;;;;4.32;3.85;;;5.50;99.90;;;;;;5053341;28;20638;-66
2021/12/12 09:21:10;;;;;;;3.78;3.47;;;5.60;99.90;;;;;;5053676;28;20215;-66
2021/12/12 09:23:41;;;;;;;4.72;3.70;;;5.60;99.90;;;;;;5053909;28;20255;-66
2021/12/12 09:26:14;;;;;;;4.30;3.58;;;5.60;99.90;;;;;;5053031;28;20207;-67
2021/12/12 09:28:44;;;;;;;4.47;4.05;;;5.60;99.90;;;;;;5053359;28;20227;-66
2021/12/12 09:31:17;;;;;;;4.40;4.00;;;5.60;99.90;;;;;;5053873;28;20230;-66
2021/12/12 09:33:48;;;;;;;5.90;4.60;;;5.70;99.90;;;;;;5053415;28;20741;-66
2021/12/12 09:36:19;;;;;;;4.20;3.53;;;5.80;99.90;;;;;;5054768;28;20675;-66
2021/12/12 09:38:52;;;;;;;4.07;3.67;;;5.80;99.90;;;;;;5057519;28;20203;-66
2021/12/12 09:41:31;;;;;;;4.53;3.67;;;5.80;99.90;;;;;;5057232;28;20203;-66
2021/12/12 09:44:19;;;;;;;4.07;3.67;;;5.90;99.90;;;;;;5057229;28;20318;-66
2021/12/12 09:47:25;;;;;;;4.63;3.70;;;5.90;99.90;;;;;;5054744;28;20199;-66
2021/12/12 09:53:28;;;;;;;4.07;3.45;;;5.90;99.90;;;;;;5056922;28;20238;-66
2021/12/12 09:56:02;;;;;;;3.40;3.03;;;5.90;99.90;;;;;;5056935;28;20203;-66
2021/12/12 09:58:37;;;;;;;5.13;4.00;;;6.00;99.90;;;;;;5056740;28;20203;-66
2021/12/12 10:01:07;;;;;;;3.90;3.15;;;6.10;99.90;;;;;;5057234;28;20575;-66
2021/12/12 10:03:51;;;;;;;4.00;3.60;;;6.20;99.90;;;;;;5057166;28;20227;-66
2021/12/12 10:06:38;;;;;;;4.40;3.33;;;6.30;99.90;;;;;;5056705;28;20294;-67
2021/12/12 10:09:10;;;;;;;3.60;3.30;;;6.20;99.90;;;;;;5057046;28;20249;-66
2021/12/12 10:11:41;;;;;;;4.90;4.00;;;6.30;99.90;;;;;;5056446;28;20210;-67
2021/12/12 10:14:15;;;;;;;4.05;3.63;;;6.30;99.90;;;;;;5057384;28;20507;-67
2021/12/12 10:16:49;;;;;;;4.35;3.88;;;6.30;99.90;;;;;;5056538;28;20558;-67
2021/12/12 10:19:28;;;;;;;4.18;3.58;;;6.40;99.90;;;;;;5056548;28;20209;-67
2021/12/12 10:22:06;;;;;;;4.18;3.53;;;6.40;99.90;;;;;;5056715;28;20294;-67
2021/12/12 10:24:38;;;;;;;4.30;3.40;;;6.40;99.90;;;;;;5056953;28;20202;-67
2021/12/12 10:27:15;;;;;;;3.90;3.58;;;6.50;99.90;;;;;;5056355;28;20234;-66
2021/12/12 10:29:54;;;;;;;3.67;3.38;;;6.60;99.90;;;;;;5056552;28;20660;-66
2021/12/12 10:32:26;;;;;;;3.58;3.28;;;6.70;99.90;;;;;;5056554;28;20230;-67
2021/12/12 10:35:06;;;;;;;3.67;2.97;;;6.70;99.90;;;;;;5055809;28;20183;-68
2021/12/12 10:37:36;;;;;;;5.38;3.30;;;6.70;99.90;;;;;;5056064;28;20203;-67
2021/12/12 10:40:12;;;;;;;3.45;3.05;;;6.80;99.90;;;;;;5056284;28;20301;-67
2021/12/12 10:42:46;;;;;;;3.20;2.80;;;6.90;99.90;;;;;;5056029;28;20237;-67
2021/12/12 10:45:18;;;;;;;3.40;3.10;;;7.00;99.90;;;;;;5055986;28;20203;-66
2021/12/12 10:47:54;;;;;;;3.45;3.05;;;7.00;99.90;;;;;;5055035;28;20234;-67
2021/12/12 10:50:31;;;;;;;3.53;3.17;;;7.00;99.90;;;;;;5056126;28;20203;-67
2021/12/12 10:53:03;;;;;;;4.15;3.10;;;7.10;99.90;;;;;;5055962;28;20227;-67
2021/12/12 10:55:36;;;;;;;3.97;3.30;;;7.20;99.90;;;;;;5055713;28;20572;-67
2021/12/12 10:58:07;;;;;;;3.25;2.95;;;7.10;99.90;;;;;;5056056;28;20289;-67
2021/12/12 11:00:40;;;;;;;4.57;3.25;;;7.30;99.90;;;;;;5056242;28;20231;-67
2021/12/12 11:03:15;;;;;;;4.10;3.70;;;7.30;99.90;;;;;;5056066;28;20219;-67
2021/12/12 11:05:48;;;;;;;3.65;2.75;;;7.30;99.90;;;;;;5055402;28;20199;-66
2021/12/12 11:08:22;;;;;;;4.75;4.15;;;7.40;99.90;;;;;;5055907;28;20277;-67
2021/12/12 11:10:52;;;;;;;7.28;5.40;;;7.50;99.90;;;;;;5055713;28;20203;-67
2021/12/12 11:13:25;;;;;;;3.72;2.63;;;7.60;99.90;;;;;;5055736;28;20219;-67
2021/12/12 11:15:58;;;;;;;3.20;2.90;;;7.60;99.90;;;;;;5055648;28;20203;-67
2021/12/12 11:18:29;;;;;;;4.85;2.97;;;7.60;99.90;;;;;;5055845;28;20205;-67
2021/12/12 11:21:03;;;;;;;3.35;3.05;;;7.60;99.90;;;;;;5055807;28;20577;-66
2021/12/12 11:23:34;;;;;;;3.45;2.60;;;7.70;99.90;;;;;;5055561;28;20539;-66
2021/12/12 11:26:05;;;;;;;2.70;2.50;;;7.70;99.70;;;;;;5055428;28;20204;-67
2021/12/12 11:28:36;;;;;;;3.45;3.05;;;7.70;99.70;;;;;;5055473;28;20234;-67
2021/12/12 11:31:11;;;;;;;3.80;3.33;;;7.70;99.90;;;;;;5055669;28;20203;-67
2021/12/12 11:33:45;;;;;;;3.15;2.60;;;7.80;99.90;;;;;;5055155;28;20272;-67
2021/12/12 11:36:19;;;;;;;5.63;2.90;;;7.80;99.30;;;;;;5055132;28;20208;-67
2021/12/12 11:38:51;;;;;;;3.13;2.90;;;7.80;99.50;;;;;;5054932;28;20572;-67
2021/12/12 11:41:25;;;;;;;3.05;2.75;;;7.90;99.70;;;;;;5055420;28;20203;-67
2021/12/12 11:44:00;;;;;;;2.55;2.35;;;7.80;99.90;;;;;;5054673;28;20230;-67
2021/12/12 11:46:34;;;;;;;3.78;2.78;;;7.90;99.90;;;;;;5054868;28;20205;-67
2021/12/12 11:49:05;;;;;;;4.25;2.90;;;8.00;99.90;;;;;;5055060;28;20223;-67
2021/12/12 11:51:38;;;;;;;3.50;2.60;;;8.00;99.90;;;;;;5055183;28;20612;-67
2021/12/12 11:54:16;;;;;;;4.82;2.00;;;8.10;99.90;;;;;;5055479;28;20187;-67
2021/12/12 11:56:47;;;;;;;2.90;2.60;;;8.20;99.90;;;;;;5054599;28;20207;-67
2021/12/12 11:59:22;;;;;;;2.50;2.30;;;8.20;99.90;;;;;;5053904;28;20203;-67
2021/12/12 12:02:03;;;;;;;4.07;2.70;;;8.20;99.90;;;;;;5054649;28;20203;-66
2021/12/12 12:05:00;;;;;;;4.45;2.70;;;8.20;99.80;;;;;;5055114;28;20586;-67
2021/12/12 12:07:42;;;;;;;2.50;2.30;;;8.20;99.30;;;;;;5054394;28;20749;-67
2021/12/12 12:10:12;;;;;;;6.57;2.80;;;8.30;99.70;;;;;;5054621;28;20664;-67
2021/12/12 12:13:00;;;;;;;3.60;2.85;;;8.30;99.30;;;;;;5054423;28;20230;-66
2021/12/12 12:15:37;;;;;;;3.67;2.60;;;8.30;99.60;;;;;;5054313;28;20219;-67
2021/12/12 12:18:14;;;;;;;3.25;2.95;;;8.30;98.80;;;;;;5054362;28;20206;-67
2021/12/12 12:20:45;;;;;;;3.50;2.90;;;8.20;99.40;;;;;;5054608;28;20207;-67
2021/12/12 12:23:32;;;;;;;11.93;6.90;;;8.30;99.70;;;;;;5054536;28;20219;-67
2021/12/12 12:28:56;;;;;;;4.13;3.70;;;8.50;97.80;;;;;;5054306;28;20292;-66
2021/12/12 12:32:11;;;;;;;3.45;2.90;;;8.60;98.10;;;;;;5054456;28;20314;-67
2021/12/12 12:35:24;;;;;;;2.30;2.10;;;8.60;97.70;;;;;;4992499;28;20205;-67
2021/12/12 12:38:32;;;;;;;3.15;2.70;;;8.70;97.70;;;;;;5054395;28;20571;-67
2021/12/12 12:41:32;;;;;;;2.67;2.35;;;8.60;97.30;;;;;;5028648;28;20598;-67
2021/12/12 12:44:35;;;;;;;4.07;2.67;;;8.60;97.30;;;;;;5053506;28;20230;-67
2021/12/12 12:48:02;;;;;;;3.00;2.70;;;8.70;97.90;;;;;;5054318;28;20209;-66
2021/12/12 12:50:51;;;;;;;3.45;3.15;;;8.70;97.30;;;;;;4992755;28;20228;-66
2021/12/12 12:53:39;;;;;;;2.25;2.00;;;8.60;96.30;;;;;;4992456;28;20587;-67
2021/12/12 12:56:14;;;;;;;2.40;2.20;;;8.50;96.20;;;;;;5037093;28;20199;-67
2021/12/12 12:59:08;;;;;;;2.72;2.50;;;8.40;96.20;;;;;;5053622;28;20206;-67
2021/12/12 13:01:44;;;;;;;2.97;2.78;;;8.30;96.50;;;;;;5053811;28;20203;-67
2021/12/12 13:04:22;;;;;;;3.47;3.17;;;8.20;96.80;;;;;;5054112;28;20191;-67
2021/12/12 13:07:08;;;;;;;3.17;2.80;;;8.10;97.00;;;;;;5054000;28;20203;-67
2021/12/12 13:09:58;;;;;;;3.40;3.10;;;8.20;97.80;;;;;;5053595;28;20224;-67
2021/12/12 13:12:48;;;;;;;3.08;2.78;;;8.30;98.30;;;;;;5049573;28;20723;-66
2021/12/12 13:15:30;;;;;;;4.63;2.90;;;8.30;97.20;;;;;;5053490;28;20192;-67
2021/12/12 13:18:07;;;;;;;3.22;2.92;;;8.20;96.90;;;;;;5053592;28;20203;-67
2021/12/12 13:20:57;;;;;;;3.30;3.00;;;8.20;97.00;;;;;;5053690;28;20207;-67
2021/12/12 13:23:38;;;;;;;4.18;3.08;;;8.20;97.30;;;;;;5053272;28;20231;-66
2021/12/12 13:26:10;;;;;;;4.85;2.95;;;8.30;97.70;;;;;;5053062;28;20668;-66
2021/12/12 13:28:52;;;;;;;3.38;2.95;;;8.30;97.20;;;;;;5053458;28;20223;-67
2021/12/12 13:31:27;;;;;;;2.95;2.63;;;8.30;97.00;;;;;;5053463;28;20214;-67
2021/12/12 13:34:02;;;;;;;2.53;2.30;;;8.20;97.40;;;;;;5053015;28;20754;-67
2021/12/12 13:36:50;;;;;;;2.90;2.63;;;8.10;98.00;;;;;;5053080;28;20206;-66
2021/12/12 13:39:26;;;;;;;4.75;3.15;;;8.10;97.30;;;;;;5053086;28;20224;-66
2021/12/12 13:42:09;;;;;;;3.35;3.05;;;8.00;96.90;;;;;;5053225;28;20203;-67
2021/12/12 13:45:05;;;;;;;3.70;3.00;;;7.90;97.20;;;;;;5053767;28;20199;-67